sensor_id;sensor_type;location;lat;lon;timestamp;P1;durP1;ratioP1;P2;durP2;ratioP2
78887;SDS011;68276;49.326;8.690;2024-03-22T00:01:52;11.55;;;4.13;;
78887;SDS011;68276;49.326;8.690;2024-03-22T00:04:18;13.02;;;4.03;;
78887;SDS011;68276;49.326;8.690;2024-03-22T00:06:45;10.18;;;4.18;;
78887;SDS011;68276;49.326;8.690;2024-03-22T00:09:11;12.70;;;4.07;;
78887;SDS011;68276;49.326;8.690;2024-03-22T00:11:38;10.55;;;4.10;;
78887;SDS011;68276;49.326;8.690;2024-03-22T00:14:05;11.48;;;3.80;;
78887;SDS011;68276;49.326;8.690;2024-03-22T00:16:30;9.77;;;3.45;;
78887;SDS011;68276;49.326;8.690;2024-03-22T00:18:56;10.52;;;3.90;;
78887;SDS011;68276;49.326;8.690;2024-03-22T00:21:22;12.10;;;4.40;;
78887;SDS011;68276;49.326;8.690;2024-03-22T00:23:47;10.48;;;4.43;;
78887;SDS011;68276;49.326;8.690;2024-03-22T00:26:13;10.90;;;4.07;;
78887;SDS011;68276;49.326;8.690;2024-03-22T00:28:38;12.57;;;4.13;;
78887;SDS011;68276;49.326;8.690;2024-03-22T00:31:04;12.73;;;4.07;;
78887;SDS011;68276;49.326;8.690;2024-03-22T00:33:29;14.43;;;4.20;;
78887;SDS011;68276;49.326;8.690;2024-03-22T00:35:54;12.50;;;4.70;;
78887;SDS011;68276;49.326;8.690;2024-03-22T00:38:20;9.67;;;3.73;;
78887;SDS011;68276;49.326;8.690;2024-03-22T00:40:45;11.53;;;4.17;;
78887;SDS011;68276;49.326;8.690;2024-03-22T00:43:11;12.20;;;4.53;;
78887;SDS011;68276;49.326;8.690;2024-03-22T00:45:36;12.45;;;4.00;;
78887;SDS011;68276;49.326;8.690;2024-03-22T00:48:01;11.23;;;3.88;;
78887;SDS011;68276;49.326;8.690;2024-03-22T00:50:27;11.90;;;4.22;;
78887;SDS011;68276;49.326;8.690;2024-03-22T00:52:53;9.50;;;3.75;;
78887;SDS011;68276;49.326;8.690;2024-03-22T00:55:21;12.05;;;3.85;;
78887;SDS011;68276;49.326;8.690;2024-03-22T00:57:47;11.25;;;3.70;;
78887;SDS011;68276;49.326;8.690;2024-03-22T01:00:12;12.60;;;3.85;;
78887;SDS011;68276;49.326;8.690;2024-03-22T01:02:38;11.07;;;4.05;;
78887;SDS011;68276;49.326;8.690;2024-03-22T01:05:05;9.80;;;3.60;;
78887;SDS011;68276;49.326;8.690;2024-03-22T01:07:30;9.98;;;3.45;;
78887;SDS011;68276;49.326;8.690;2024-03-22T01:09:56;11.18;;;4.20;;
78887;SDS011;68276;49.326;8.690;2024-03-22T01:12:21;11.50;;;4.43;;
78887;SDS011;68276;49.326;8.690;2024-03-22T01:14:47;12.03;;;4.50;;
78887;SDS011;68276;49.326;8.690;2024-03-22T01:17:12;9.50;;;3.58;;
78887;SDS011;68276;49.326;8.690;2024-03-22T01:19:37;9.80;;;3.70;;
78887;SDS011;68276;49.326;8.690;2024-03-22T01:22:03;11.07;;;4.60;;
78887;SDS011;68276;49.326;8.690;2024-03-22T01:24:28;11.20;;;4.05;;
78887;SDS011;68276;49.326;8.690;2024-03-22T01:26:54;10.18;;;3.90;;
78887;SDS011;68276;49.326;8.690;2024-03-22T01:29:20;11.05;;;3.92;;
78887;SDS011;68276;49.326;8.690;2024-03-22T01:31:46;9.93;;;3.85;;
78887;SDS011;68276;49.326;8.690;2024-03-22T01:34:11;9.93;;;4.03;;
78887;SDS011;68276;49.326;8.690;2024-03-22T01:36:37;9.87;;;3.60;;
78887;SDS011;68276;49.326;8.690;2024-03-22T01:39:02;11.25;;;3.80;;
78887;SDS011;68276;49.326;8.690;2024-03-22T01:41:28;12.60;;;4.00;;
78887;SDS011;68276;49.326;8.690;2024-03-22T01:43:53;10.18;;;3.92;;
78887;SDS011;68276;49.326;8.690;2024-03-22T01:46:18;10.63;;;4.03;;
78887;SDS011;68276;49.326;8.690;2024-03-22T01:48:44;11.15;;;4.00;;
78887;SDS011;68276;49.326;8.690;2024-03-22T01:51:09;11.10;;;4.20;;
78887;SDS011;68276;49.326;8.690;2024-03-22T01:53:35;12.38;;;4.60;;
78887;SDS011;68276;49.326;8.690;2024-03-22T01:56:02;9.90;;;3.33;;
78887;SDS011;68276;49.326;8.690;2024-03-22T01:58:28;10.90;;;3.78;;
78887;SDS011;68276;49.326;8.690;2024-03-22T02:00:54;11.70;;;3.85;;
78887;SDS011;68276;49.326;8.690;2024-03-22T02:03:19;10.65;;;3.60;;
78887;SDS011;68276;49.326;8.690;2024-03-22T02:05:45;10.55;;;3.78;;
78887;SDS011;68276;49.326;8.690;2024-03-22T02:08:10;10.87;;;4.10;;
78887;SDS011;68276;49.326;8.690;2024-03-22T02:10:36;12.65;;;3.88;;
78887;SDS011;68276;49.326;8.690;2024-03-22T02:13:01;11.18;;;4.13;;
78887;SDS011;68276;49.326;8.690;2024-03-22T02:15:27;10.13;;;4.05;;
78887;SDS011;68276;49.326;8.690;2024-03-22T02:17:52;10.57;;;3.60;;
78887;SDS011;68276;49.326;8.690;2024-03-22T02:20:18;11.20;;;4.27;;
78887;SDS011;68276;49.326;8.690;2024-03-22T02:22:43;11.27;;;4.25;;
78887;SDS011;68276;49.326;8.690;2024-03-22T02:25:09;10.65;;;3.88;;
78887;SDS011;68276;49.326;8.690;2024-03-22T02:27:34;10.15;;;3.95;;
78887;SDS011;68276;49.326;8.690;2024-03-22T02:30:00;10.57;;;3.53;;
78887;SDS011;68276;49.326;8.690;2024-03-22T02:34:52;11.47;;;3.70;;
78887;SDS011;68276;49.326;8.690;2024-03-22T02:37:17;11.00;;;4.03;;
78887;SDS011;68276;49.326;8.690;2024-03-22T02:39:43;8.85;;;3.25;;
78887;SDS011;68276;49.326;8.690;2024-03-22T02:42:08;9.65;;;3.55;;
78887;SDS011;68276;49.326;8.690;2024-03-22T02:44:33;9.50;;;3.65;;
78887;SDS011;68276;49.326;8.690;2024-03-22T02:46:59;11.23;;;3.70;;
78887;SDS011;68276;49.326;8.690;2024-03-22T02:49:25;8.67;;;3.33;;
78887;SDS011;68276;49.326;8.690;2024-03-22T02:51:50;10.40;;;3.33;;
78887;SDS011;68276;49.326;8.690;2024-03-22T02:54:16;9.75;;;3.47;;
78887;SDS011;68276;49.326;8.690;2024-03-22T02:56:41;10.85;;;3.28;;
78887;SDS011;68276;49.326;8.690;2024-03-22T02:59:07;10.53;;;3.53;;
78887;SDS011;68276;49.326;8.690;2024-03-22T03:01:32;10.23;;;3.50;;
78887;SDS011;68276;49.326;8.690;2024-03-22T03:03:57;10.65;;;4.10;;
78887;SDS011;68276;49.326;8.690;2024-03-22T03:06:23;8.33;;;3.17;;
78887;SDS011;68276;49.326;8.690;2024-03-22T03:08:49;9.93;;;3.60;;
78887;SDS011;68276;49.326;8.690;2024-03-22T03:11:14;10.40;;;3.30;;
78887;SDS011;68276;49.326;8.690;2024-03-22T03:13:42;9.30;;;3.15;;
78887;SDS011;68276;49.326;8.690;2024-03-22T03:16:08;10.00;;;3.40;;
78887;SDS011;68276;49.326;8.690;2024-03-22T03:18:33;9.57;;;3.28;;
78887;SDS011;68276;49.326;8.690;2024-03-22T03:20:58;8.55;;;3.25;;
78887;SDS011;68276;49.326;8.690;2024-03-22T03:23:24;8.75;;;2.92;;
78887;SDS011;68276;49.326;8.690;2024-03-22T03:25:49;8.33;;;3.00;;
78887;SDS011;68276;49.326;8.690;2024-03-22T03:28:15;11.95;;;3.72;;
78887;SDS011;68276;49.326;8.690;2024-03-22T03:30:40;9.10;;;3.33;;
78887;SDS011;68276;49.326;8.690;2024-03-22T03:33:05;10.57;;;3.55;;
78887;SDS011;68276;49.326;8.690;2024-03-22T03:35:31;10.38;;;3.58;;
78887;SDS011;68276;49.326;8.690;2024-03-22T03:37:56;8.87;;;3.50;;
78887;SDS011;68276;49.326;8.690;2024-03-22T03:40:21;11.27;;;3.80;;
78887;SDS011;68276;49.326;8.690;2024-03-22T03:42:49;9.82;;;3.75;;
78887;SDS011;68276;49.326;8.690;2024-03-22T03:45:18;9.85;;;3.97;;
78887;SDS011;68276;49.326;8.690;2024-03-22T03:47:43;8.82;;;3.38;;
78887;SDS011;68276;49.326;8.690;2024-03-22T03:50:08;8.97;;;3.40;;
78887;SDS011;68276;49.326;8.690;2024-03-22T03:52:34;10.15;;;3.83;;
78887;SDS011;68276;49.326;8.690;2024-03-22T03:55:00;10.77;;;3.67;;
78887;SDS011;68276;49.326;8.690;2024-03-22T03:57:25;12.32;;;3.83;;
78887;SDS011;68276;49.326;8.690;2024-03-22T03:59:51;9.00;;;3.43;;
78887;SDS011;68276;49.326;8.690;2024-03-22T04:02:16;9.73;;;3.45;;
78887;SDS011;68276;49.326;8.690;2024-03-22T04:04:42;8.63;;;3.20;;
78887;SDS011;68276;49.326;8.690;2024-03-22T04:07:07;8.90;;;3.15;;
78887;SDS011;68276;49.326;8.690;2024-03-22T04:09:33;8.70;;;3.23;;
78887;SDS011;68276;49.326;8.690;2024-03-22T04:11:59;10.45;;;3.30;;
78887;SDS011;68276;49.326;8.690;2024-03-22T04:14:25;11.45;;;3.40;;
78887;SDS011;68276;49.326;8.690;2024-03-22T04:16:50;9.50;;;3.72;;
78887;SDS011;68276;49.326;8.690;2024-03-22T04:19:16;10.98;;;3.70;;
78887;SDS011;68276;49.326;8.690;2024-03-22T04:21:42;10.05;;;3.70;;
78887;SDS011;68276;49.326;8.690;2024-03-22T04:24:07;10.10;;;3.75;;
78887;SDS011;68276;49.326;8.690;2024-03-22T04:26:32;9.73;;;3.58;;
78887;SDS011;68276;49.326;8.690;2024-03-22T04:28:58;9.05;;;3.40;;
78887;SDS011;68276;49.326;8.690;2024-03-22T04:31:23;9.57;;;3.60;;
78887;SDS011;68276;49.326;8.690;2024-03-22T04:33:49;12.45;;;4.85;;
78887;SDS011;68276;49.326;8.690;2024-03-22T04:36:15;13.85;;;4.28;;
78887;SDS011;68276;49.326;8.690;2024-03-22T04:38:40;12.35;;;4.25;;
78887;SDS011;68276;49.326;8.690;2024-03-22T04:41:06;9.53;;;3.70;;
78887;SDS011;68276;49.326;8.690;2024-03-22T04:43:31;10.93;;;3.85;;
78887;SDS011;68276;49.326;8.690;2024-03-22T04:45:57;12.75;;;4.20;;
78887;SDS011;68276;49.326;8.690;2024-03-22T04:48:22;12.40;;;4.38;;
78887;SDS011;68276;49.326;8.690;2024-03-22T04:50:52;12.55;;;4.25;;
78887;SDS011;68276;49.326;8.690;2024-03-22T04:53:18;9.70;;;4.00;;
78887;SDS011;68276;49.326;8.690;2024-03-22T04:55:46;10.65;;;4.18;;
78887;SDS011;68276;49.326;8.690;2024-03-22T04:58:15;9.63;;;3.58;;
78887;SDS011;68276;49.326;8.690;2024-03-22T05:00:42;11.82;;;4.32;;
78887;SDS011;68276;49.326;8.690;2024-03-22T05:03:08;10.65;;;4.00;;
78887;SDS011;68276;49.326;8.690;2024-03-22T05:05:34;12.03;;;3.97;;
78887;SDS011;68276;49.326;8.690;2024-03-22T05:08:00;9.23;;;3.42;;
78887;SDS011;68276;49.326;8.690;2024-03-22T05:10:25;10.20;;;3.85;;
78887;SDS011;68276;49.326;8.690;2024-03-22T05:12:51;9.77;;;3.78;;
78887;SDS011;68276;49.326;8.690;2024-03-22T05:15:16;11.57;;;4.07;;
78887;SDS011;68276;49.326;8.690;2024-03-22T05:17:42;12.02;;;3.47;;
78887;SDS011;68276;49.326;8.690;2024-03-22T05:20:08;10.63;;;4.55;;
78887;SDS011;68276;49.326;8.690;2024-03-22T05:22:38;11.65;;;4.13;;
78887;SDS011;68276;49.326;8.690;2024-03-22T05:25:04;12.15;;;4.03;;
78887;SDS011;68276;49.326;8.690;2024-03-22T05:27:33;13.45;;;3.72;;
78887;SDS011;68276;49.326;8.690;2024-03-22T05:29:59;9.75;;;3.20;;
78887;SDS011;68276;49.326;8.690;2024-03-22T05:32:24;10.00;;;4.38;;
78887;SDS011;68276;49.326;8.690;2024-03-22T05:34:51;10.55;;;4.18;;
78887;SDS011;68276;49.326;8.690;2024-03-22T05:37:17;8.55;;;3.33;;
78887;SDS011;68276;49.326;8.690;2024-03-22T05:39:42;10.10;;;3.57;;
78887;SDS011;68276;49.326;8.690;2024-03-22T05:42:07;11.50;;;3.97;;
78887;SDS011;68276;49.326;8.690;2024-03-22T05:44:33;12.15;;;4.00;;
78887;SDS011;68276;49.326;8.690;2024-03-22T05:46:58;10.48;;;3.42;;
78887;SDS011;68276;49.326;8.690;2024-03-22T05:49:24;9.13;;;3.60;;
78887;SDS011;68276;49.326;8.690;2024-03-22T05:51:49;10.87;;;4.00;;
78887;SDS011;68276;49.326;8.690;2024-03-22T05:54:15;13.15;;;4.43;;
78887;SDS011;68276;49.326;8.690;2024-03-22T05:56:43;9.67;;;4.03;;
78887;SDS011;68276;49.326;8.690;2024-03-22T05:59:08;12.30;;;4.47;;
78887;SDS011;68276;49.326;8.690;2024-03-22T06:01:35;9.93;;;4.07;;
78887;SDS011;68276;49.326;8.690;2024-03-22T06:04:00;10.48;;;3.85;;
78887;SDS011;68276;49.326;8.690;2024-03-22T06:06:26;12.67;;;4.20;;
78887;SDS011;68276;49.326;8.690;2024-03-22T06:08:51;12.03;;;4.10;;
78887;SDS011;68276;49.326;8.690;2024-03-22T06:11:19;10.15;;;3.85;;
78887;SDS011;68276;49.326;8.690;2024-03-22T06:13:44;11.38;;;4.57;;
78887;SDS011;68276;49.326;8.690;2024-03-22T06:16:10;10.48;;;3.80;;
78887;SDS011;68276;49.326;8.690;2024-03-22T06:18:36;14.82;;;4.50;;
78887;SDS011;68276;49.326;8.690;2024-03-22T06:21:01;10.90;;;4.47;;
78887;SDS011;68276;49.326;8.690;2024-03-22T06:25:56;10.27;;;3.90;;
78887;SDS011;68276;49.326;8.690;2024-03-22T06:28:22;13.07;;;4.30;;
78887;SDS011;68276;49.326;8.690;2024-03-22T06:30:48;10.20;;;4.22;;
78887;SDS011;68276;49.326;8.690;2024-03-22T06:33:14;11.73;;;4.10;;
78887;SDS011;68276;49.326;8.690;2024-03-22T06:35:40;12.40;;;4.45;;
78887;SDS011;68276;49.326;8.690;2024-03-22T06:38:06;9.85;;;4.57;;
78887;SDS011;68276;49.326;8.690;2024-03-22T06:40:32;13.07;;;4.38;;
78887;SDS011;68276;49.326;8.690;2024-03-22T06:42:57;10.32;;;4.13;;
78887;SDS011;68276;49.326;8.690;2024-03-22T06:45:23;13.25;;;4.72;;
78887;SDS011;68276;49.326;8.690;2024-03-22T06:47:48;12.25;;;4.22;;
78887;SDS011;68276;49.326;8.690;2024-03-22T06:50:14;10.37;;;4.03;;
78887;SDS011;68276;49.326;8.690;2024-03-22T06:52:39;9.90;;;4.45;;
78887;SDS011;68276;49.326;8.690;2024-03-22T06:55:05;12.15;;;4.70;;
78887;SDS011;68276;49.326;8.690;2024-03-22T06:57:31;10.90;;;4.15;;
78887;SDS011;68276;49.326;8.690;2024-03-22T06:59:58;12.07;;;4.38;;
78887;SDS011;68276;49.326;8.690;2024-03-22T07:02:24;11.27;;;4.22;;
78887;SDS011;68276;49.326;8.690;2024-03-22T07:04:49;11.15;;;5.00;;
78887;SDS011;68276;49.326;8.690;2024-03-22T07:07:15;10.37;;;4.50;;
78887;SDS011;68276;49.326;8.690;2024-03-22T07:09:40;11.37;;;4.07;;
78887;SDS011;68276;49.326;8.690;2024-03-22T07:12:06;13.30;;;4.13;;
78887;SDS011;68276;49.326;8.690;2024-03-22T07:14:32;12.73;;;4.88;;
78887;SDS011;68276;49.326;8.690;2024-03-22T07:16:57;14.17;;;4.70;;
78887;SDS011;68276;49.326;8.690;2024-03-22T07:19:22;11.20;;;4.75;;
78887;SDS011;68276;49.326;8.690;2024-03-22T07:21:48;9.43;;;4.60;;
78887;SDS011;68276;49.326;8.690;2024-03-22T07:24:13;14.60;;;5.20;;
78887;SDS011;68276;49.326;8.690;2024-03-22T07:26:39;10.48;;;4.68;;
78887;SDS011;68276;49.326;8.690;2024-03-22T07:29:05;12.27;;;5.50;;
78887;SDS011;68276;49.326;8.690;2024-03-22T07:31:30;11.25;;;4.47;;
78887;SDS011;68276;49.326;8.690;2024-03-22T07:33:56;10.60;;;4.70;;
78887;SDS011;68276;49.326;8.690;2024-03-22T07:36:21;12.15;;;4.53;;
78887;SDS011;68276;49.326;8.690;2024-03-22T07:38:47;13.52;;;4.55;;
78887;SDS011;68276;49.326;8.690;2024-03-22T07:41:14;11.15;;;5.00;;
78887;SDS011;68276;49.326;8.690;2024-03-22T07:43:39;12.00;;;4.60;;
78887;SDS011;68276;49.326;8.690;2024-03-22T07:46:05;11.73;;;4.70;;
78887;SDS011;68276;49.326;8.690;2024-03-22T07:48:31;11.52;;;4.90;;
78887;SDS011;68276;49.326;8.690;2024-03-22T07:53:22;9.65;;;3.78;;
78887;SDS011;68276;49.326;8.690;2024-03-22T07:55:48;11.47;;;3.90;;
78887;SDS011;68276;49.326;8.690;2024-03-22T07:58:13;14.23;;;5.13;;
78887;SDS011;68276;49.326;8.690;2024-03-22T08:00:39;10.05;;;4.30;;
78887;SDS011;68276;49.326;8.690;2024-03-22T08:03:04;10.07;;;3.77;;
78887;SDS011;68276;49.326;8.690;2024-03-22T08:05:30;8.70;;;3.90;;
78887;SDS011;68276;49.326;8.690;2024-03-22T08:07:55;11.23;;;4.30;;
78887;SDS011;68276;49.326;8.690;2024-03-22T08:10:20;12.43;;;4.40;;
78887;SDS011;68276;49.326;8.690;2024-03-22T08:12:46;11.30;;;3.92;;
78887;SDS011;68276;49.326;8.690;2024-03-22T08:15:11;9.10;;;4.13;;
78887;SDS011;68276;49.326;8.690;2024-03-22T08:17:37;10.97;;;4.50;;
78887;SDS011;68276;49.326;8.690;2024-03-22T08:20:02;11.83;;;3.67;;
78887;SDS011;68276;49.326;8.690;2024-03-22T08:22:28;10.48;;;4.18;;
78887;SDS011;68276;49.326;8.690;2024-03-22T08:24:53;9.02;;;4.05;;
78887;SDS011;68276;49.326;8.690;2024-03-22T08:27:21;9.88;;;4.53;;
78887;SDS011;68276;49.326;8.690;2024-03-22T08:29:46;12.27;;;4.10;;
78887;SDS011;68276;49.326;8.690;2024-03-22T08:32:12;10.30;;;4.40;;
78887;SDS011;68276;49.326;8.690;2024-03-22T08:34:37;10.50;;;3.83;;
78887;SDS011;68276;49.326;8.690;2024-03-22T08:37:02;11.10;;;3.88;;
78887;SDS011;68276;49.326;8.690;2024-03-22T08:39:29;9.18;;;3.85;;
78887;SDS011;68276;49.326;8.690;2024-03-22T08:44:20;9.55;;;3.72;;
78887;SDS011;68276;49.326;8.690;2024-03-22T08:46:46;10.13;;;4.18;;
78887;SDS011;68276;49.326;8.690;2024-03-22T08:49:12;10.98;;;3.85;;
78887;SDS011;68276;49.326;8.690;2024-03-22T08:51:37;9.70;;;4.10;;
78887;SDS011;68276;49.326;8.690;2024-03-22T08:54:02;9.95;;;4.43;;
78887;SDS011;68276;49.326;8.690;2024-03-22T08:56:29;10.15;;;4.13;;
78887;SDS011;68276;49.326;8.690;2024-03-22T08:58:54;9.38;;;3.70;;
78887;SDS011;68276;49.326;8.690;2024-03-22T09:01:20;9.35;;;3.58;;
78887;SDS011;68276;49.326;8.690;2024-03-22T09:03:47;8.85;;;3.35;;
78887;SDS011;68276;49.326;8.690;2024-03-22T09:06:16;8.52;;;3.30;;
78887;SDS011;68276;49.326;8.690;2024-03-22T09:08:41;10.10;;;3.67;;
78887;SDS011;68276;49.326;8.690;2024-03-22T09:11:07;10.02;;;3.55;;
78887;SDS011;68276;49.326;8.690;2024-03-22T09:13:32;9.23;;;3.80;;
78887;SDS011;68276;49.326;8.690;2024-03-22T09:16:00;7.93;;;3.28;;
78887;SDS011;68276;49.326;8.690;2024-03-22T09:18:26;9.50;;;2.80;;
78887;SDS011;68276;49.326;8.690;2024-03-22T09:20:52;8.45;;;3.28;;
78887;SDS011;68276;49.326;8.690;2024-03-22T09:23:18;8.68;;;3.72;;
78887;SDS011;68276;49.326;8.690;2024-03-22T09:25:44;9.73;;;3.33;;
78887;SDS011;68276;49.326;8.690;2024-03-22T09:28:11;8.88;;;2.95;;
78887;SDS011;68276;49.326;8.690;2024-03-22T09:30:40;7.90;;;3.20;;
78887;SDS011;68276;49.326;8.690;2024-03-22T09:33:06;12.57;;;2.83;;
78887;SDS011;68276;49.326;8.690;2024-03-22T09:35:35;8.07;;;3.03;;
78887;SDS011;68276;49.326;8.690;2024-03-22T09:38:01;12.50;;;3.40;;
78887;SDS011;68276;49.326;8.690;2024-03-22T09:40:27;9.63;;;2.78;;
78887;SDS011;68276;49.326;8.690;2024-03-22T09:42:54;9.07;;;3.40;;
78887;SDS011;68276;49.326;8.690;2024-03-22T09:45:31;8.60;;;3.55;;
78887;SDS011;68276;49.326;8.690;2024-03-22T09:47:57;7.82;;;2.90;;
78887;SDS011;68276;49.326;8.690;2024-03-22T09:52:48;10.38;;;3.05;;
78887;SDS011;68276;49.326;8.690;2024-03-22T09:55:18;10.02;;;3.03;;
78887;SDS011;68276;49.326;8.690;2024-03-22T09:57:53;13.25;;;3.50;;
78887;SDS011;68276;49.326;8.690;2024-03-22T10:00:19;9.52;;;2.90;;
78887;SDS011;68276;49.326;8.690;2024-03-22T10:02:47;10.02;;;3.17;;
78887;SDS011;68276;49.326;8.690;2024-03-22T10:05:14;9.02;;;3.13;;
78887;SDS011;68276;49.326;8.690;2024-03-22T10:07:40;11.25;;;2.85;;
78887;SDS011;68276;49.326;8.690;2024-03-22T10:10:06;7.45;;;2.72;;
78887;SDS011;68276;49.326;8.690;2024-03-22T10:12:32;8.65;;;2.78;;
78887;SDS011;68276;49.326;8.690;2024-03-22T10:14:58;9.77;;;3.17;;
78887;SDS011;68276;49.326;8.690;2024-03-22T10:17:25;8.15;;;2.80;;
78887;SDS011;68276;49.326;8.690;2024-03-22T10:19:51;7.32;;;2.60;;
78887;SDS011;68276;49.326;8.690;2024-03-22T10:22:17;11.05;;;2.90;;
78887;SDS011;68276;49.326;8.690;2024-03-22T10:24:43;11.20;;;3.40;;
78887;SDS011;68276;49.326;8.690;2024-03-22T10:27:09;7.72;;;2.78;;
78887;SDS011;68276;49.326;8.690;2024-03-22T10:29:35;8.27;;;2.72;;
78887;SDS011;68276;49.326;8.690;2024-03-22T10:32:01;7.75;;;2.50;;
78887;SDS011;68276;49.326;8.690;2024-03-22T10:34:27;9.30;;;3.10;;
78887;SDS011;68276;49.326;8.690;2024-03-22T10:36:55;9.35;;;2.63;;
78887;SDS011;68276;49.326;8.690;2024-03-22T10:39:22;8.68;;;2.60;;
78887;SDS011;68276;49.326;8.690;2024-03-22T10:41:48;8.95;;;3.15;;
78887;SDS011;68276;49.326;8.690;2024-03-22T10:44:16;7.80;;;2.83;;
78887;SDS011;68276;49.326;8.690;2024-03-22T10:46:45;8.27;;;2.53;;
78887;SDS011;68276;49.326;8.690;2024-03-22T10:49:15;9.88;;;3.30;;
78887;SDS011;68276;49.326;8.690;2024-03-22T10:51:46;7.78;;;3.08;;
78887;SDS011;68276;49.326;8.690;2024-03-22T10:54:16;8.48;;;3.00;;
78887;SDS011;68276;49.326;8.690;2024-03-22T10:56:44;7.90;;;3.08;;
78887;SDS011;68276;49.326;8.690;2024-03-22T10:59:13;11.13;;;2.72;;
78887;SDS011;68276;49.326;8.690;2024-03-22T11:01:48;7.07;;;2.95;;
78887;SDS011;68276;49.326;8.690;2024-03-22T11:04:19;8.63;;;3.22;;
78887;SDS011;68276;49.326;8.690;2024-03-22T11:06:51;7.70;;;3.05;;
78887;SDS011;68276;49.326;8.690;2024-03-22T11:09:22;8.75;;;3.15;;
78887;SDS011;68276;49.326;8.690;2024-03-22T11:11:48;9.23;;;2.90;;
78887;SDS011;68276;49.326;8.690;2024-03-22T11:14:16;7.93;;;2.92;;
78887;SDS011;68276;49.326;8.690;2024-03-22T11:16:45;9.13;;;3.00;;
78887;SDS011;68276;49.326;8.690;2024-03-22T11:19:10;9.45;;;3.03;;
78887;SDS011;68276;49.326;8.690;2024-03-22T11:21:36;11.23;;;3.33;;
78887;SDS011;68276;49.326;8.690;2024-03-22T11:24:02;8.63;;;3.25;;
78887;SDS011;68276;49.326;8.690;2024-03-22T11:26:28;8.50;;;2.90;;
78887;SDS011;68276;49.326;8.690;2024-03-22T11:28:53;10.60;;;3.17;;
78887;SDS011;68276;49.326;8.690;2024-03-22T11:31:19;7.27;;;2.80;;
78887;SDS011;68276;49.326;8.690;2024-03-22T11:33:46;8.75;;;3.03;;
78887;SDS011;68276;49.326;8.690;2024-03-22T11:36:12;9.55;;;2.63;;
78887;SDS011;68276;49.326;8.690;2024-03-22T11:38:38;7.18;;;2.10;;
78887;SDS011;68276;49.326;8.690;2024-03-22T11:41:04;7.87;;;2.63;;
78887;SDS011;68276;49.326;8.690;2024-03-22T11:43:30;9.40;;;3.05;;
78887;SDS011;68276;49.326;8.690;2024-03-22T11:45:57;10.95;;;3.08;;
78887;SDS011;68276;49.326;8.690;2024-03-22T11:48:23;8.82;;;2.80;;
78887;SDS011;68276;49.326;8.690;2024-03-22T11:50:49;8.07;;;2.88;;
78887;SDS011;68276;49.326;8.690;2024-03-22T11:53:15;8.82;;;2.70;;
78887;SDS011;68276;49.326;8.690;2024-03-22T11:55:42;6.50;;;2.45;;
78887;SDS011;68276;49.326;8.690;2024-03-22T11:58:09;8.05;;;2.47;;
78887;SDS011;68276;49.326;8.690;2024-03-22T12:00:35;7.50;;;2.50;;
78887;SDS011;68276;49.326;8.690;2024-03-22T12:03:02;7.10;;;2.42;;
78887;SDS011;68276;49.326;8.690;2024-03-22T12:05:29;12.77;;;2.65;;
78887;SDS011;68276;49.326;8.690;2024-03-22T12:07:55;8.15;;;2.30;;
78887;SDS011;68276;49.326;8.690;2024-03-22T12:10:21;7.90;;;2.40;;
78887;SDS011;68276;49.326;8.690;2024-03-22T12:12:46;8.57;;;2.75;;
78887;SDS011;68276;49.326;8.690;2024-03-22T12:15:12;6.57;;;2.00;;
78887;SDS011;68276;49.326;8.690;2024-03-22T12:17:37;7.00;;;2.17;;
78887;SDS011;68276;49.326;8.690;2024-03-22T12:20:05;7.45;;;2.53;;
78887;SDS011;68276;49.326;8.690;2024-03-22T12:22:33;6.10;;;2.30;;
78887;SDS011;68276;49.326;8.690;2024-03-22T12:24:59;10.10;;;2.42;;
78887;SDS011;68276;49.326;8.690;2024-03-22T12:27:24;8.75;;;2.80;;
78887;SDS011;68276;49.326;8.690;2024-03-22T12:29:50;7.60;;;2.45;;
78887;SDS011;68276;49.326;8.690;2024-03-22T12:32:15;9.80;;;2.87;;
78887;SDS011;68276;49.326;8.690;2024-03-22T12:34:41;6.88;;;2.50;;
78887;SDS011;68276;49.326;8.690;2024-03-22T12:37:06;7.60;;;2.67;;
78887;SDS011;68276;49.326;8.690;2024-03-22T12:39:32;6.80;;;2.57;;
78887;SDS011;68276;49.326;8.690;2024-03-22T12:41:57;7.63;;;2.30;;
78887;SDS011;68276;49.326;8.690;2024-03-22T12:44:24;7.03;;;2.20;;
78887;SDS011;68276;49.326;8.690;2024-03-22T12:46:49;6.18;;;2.13;;
78887;SDS011;68276;49.326;8.690;2024-03-22T12:49:16;7.15;;;1.98;;
78887;SDS011;68276;49.326;8.690;2024-03-22T12:51:42;7.72;;;2.00;;
78887;SDS011;68276;49.326;8.690;2024-03-22T12:54:07;7.43;;;2.83;;
78887;SDS011;68276;49.326;8.690;2024-03-22T12:56:34;6.63;;;2.15;;
78887;SDS011;68276;49.326;8.690;2024-03-22T12:58:59;9.27;;;2.20;;
78887;SDS011;68276;49.326;8.690;2024-03-22T13:01:25;6.13;;;2.25;;
78887;SDS011;68276;49.326;8.690;2024-03-22T13:03:51;8.80;;;2.65;;
78887;SDS011;68276;49.326;8.690;2024-03-22T13:06:16;7.55;;;2.33;;
78887;SDS011;68276;49.326;8.690;2024-03-22T13:08:42;6.30;;;2.10;;
78887;SDS011;68276;49.326;8.690;2024-03-22T13:11:07;8.40;;;2.40;;
78887;SDS011;68276;49.326;8.690;2024-03-22T13:13:34;8.57;;;2.40;;
78887;SDS011;68276;49.326;8.690;2024-03-22T13:18:27;6.93;;;2.30;;
78887;SDS011;68276;49.326;8.690;2024-03-22T13:20:53;9.65;;;2.33;;
78887;SDS011;68276;49.326;8.690;2024-03-22T13:23:19;6.32;;;2.38;;
78887;SDS011;68276;49.326;8.690;2024-03-22T13:25:44;6.13;;;2.20;;
78887;SDS011;68276;49.326;8.690;2024-03-22T13:28:09;6.97;;;2.15;;
78887;SDS011;68276;49.326;8.690;2024-03-22T13:30:35;7.17;;;1.80;;
78887;SDS011;68276;49.326;8.690;2024-03-22T13:33:02;5.35;;;1.75;;
78887;SDS011;68276;49.326;8.690;2024-03-22T13:35:28;8.20;;;1.92;;
78887;SDS011;68276;49.326;8.690;2024-03-22T13:37:53;4.57;;;1.40;;
78887;SDS011;68276;49.326;8.690;2024-03-22T13:40:19;6.20;;;1.40;;
78887;SDS011;68276;49.326;8.690;2024-03-22T13:42:44;6.85;;;1.88;;
78887;SDS011;68276;49.326;8.690;2024-03-22T13:45:10;6.25;;;1.70;;
78887;SDS011;68276;49.326;8.690;2024-03-22T13:47:35;7.22;;;1.88;;
78887;SDS011;68276;49.326;8.690;2024-03-22T13:50:05;6.78;;;1.88;;
78887;SDS011;68276;49.326;8.690;2024-03-22T13:52:33;8.35;;;2.17;;
78887;SDS011;68276;49.326;8.690;2024-03-22T13:54:59;6.18;;;2.13;;
78887;SDS011;68276;49.326;8.690;2024-03-22T13:57:26;5.93;;;1.70;;
78887;SDS011;68276;49.326;8.690;2024-03-22T13:59:51;7.20;;;1.80;;
78887;SDS011;68276;49.326;8.690;2024-03-22T14:02:17;6.65;;;2.10;;
78887;SDS011;68276;49.326;8.690;2024-03-22T14:04:43;6.55;;;2.10;;
78887;SDS011;68276;49.326;8.690;2024-03-22T14:07:09;5.32;;;1.80;;
78887;SDS011;68276;49.326;8.690;2024-03-22T14:09:34;5.53;;;1.75;;
78887;SDS011;68276;49.326;8.690;2024-03-22T14:12:01;5.05;;;1.75;;
78887;SDS011;68276;49.326;8.690;2024-03-22T14:14:27;9.20;;;1.52;;
78887;SDS011;68276;49.326;8.690;2024-03-22T14:16:54;8.55;;;2.30;;
78887;SDS011;68276;49.326;8.690;2024-03-22T14:19:19;6.20;;;1.73;;
78887;SDS011;68276;49.326;8.690;2024-03-22T14:21:45;5.63;;;1.73;;
78887;SDS011;68276;49.326;8.690;2024-03-22T14:24:11;5.25;;;1.50;;
78887;SDS011;68276;49.326;8.690;2024-03-22T14:26:37;12.25;;;2.00;;
78887;SDS011;68276;49.326;8.690;2024-03-22T14:29:12;6.10;;;1.58;;
78887;SDS011;68276;49.326;8.690;2024-03-22T14:31:38;6.82;;;1.70;;
78887;SDS011;68276;49.326;8.690;2024-03-22T14:34:07;5.30;;;1.85;;
78887;SDS011;68276;49.326;8.690;2024-03-22T14:36:32;5.25;;;1.70;;
78887;SDS011;68276;49.326;8.690;2024-03-22T14:38:58;6.28;;;1.70;;
78887;SDS011;68276;49.326;8.690;2024-03-22T14:41:24;5.65;;;2.00;;
78887;SDS011;68276;49.326;8.690;2024-03-22T14:43:49;6.68;;;1.90;;
78887;SDS011;68276;49.326;8.690;2024-03-22T14:46:15;6.20;;;1.90;;
78887;SDS011;68276;49.326;8.690;2024-03-22T14:48:43;5.70;;;1.60;;